Time;durP1;ratioP1;P1;durP2;ratioP2;P2;SDS_P1;SDS_P2;PMS_P1;PMS_P2;Temp;Humidity;BMP_temperature;BMP_pressure;BME280_temperature;BME280_humidity;BME280_pressure;Samples;Min_cycle;Max_cycle;Signal;HPM_P1;HPM_P2
2023/06/06 00:01:30;;;;;;;2.67;2.00;;;20.50;35.40;;;;;;5093284;28;20047;-43
2023/06/06 00:03:57;;;;;;;2.63;1.92;;;20.50;35.50;;;;;;5092953;28;20054;-45
2023/06/06 00:06:27;;;;;;;3.53;2.30;;;20.40;35.50;;;;;;5094194;28;20069;-44
2023/06/06 00:08:54;;;;;;;5.90;2.60;;;20.40;35.60;;;;;;5094534;28;20063;-40
2023/06/06 00:11:22;;;;;;;6.43;2.55;;;20.40;35.80;;;;;;5094449;28;20052;-43
2023/06/06 00:13:50;;;;;;;5.70;2.70;;;20.30;35.60;;;;;;5095781;28;20059;-40
2023/06/06 00:16:18;;;;;;;6.65;2.40;;;20.20;35.60;;;;;;5092658;28;20066;-40
2023/06/06 00:18:46;;;;;;;4.63;2.50;;;20.20;36.00;;;;;;5092800;28;20062;-39
2023/06/06 00:21:13;;;;;;;6.15;2.70;;;20.10;36.00;;;;;;5094851;28;20059;-40
2023/06/06 00:23:40;;;;;;;4.97;1.90;;;20.00;35.80;;;;;;5097605;28;20521;-42
2023/06/06 00:26:07;;;;;;;2.78;2.15;;;19.90;36.10;;;;;;5092578;28;20541;-41
2023/06/06 00:28:35;;;;;;;5.15;2.30;;;19.80;36.10;;;;;;5090042;28;20050;-42
2023/06/06 00:31:02;;;;;;;4.57;2.58;;;19.80;36.20;;;;;;5094124;28;20412;-43
2023/06/06 00:33:30;;;;;;;5.40;2.63;;;19.70;36.30;;;;;;5098874;28;20039;-42
2023/06/06 00:35:58;;;;;;;3.17;1.85;;;19.70;36.90;;;;;;5093136;28;20051;-43
2023/06/06 00:38:25;;;;;;;3.40;2.17;;;19.60;37.00;;;;;;5095458;28;20047;-43
2023/06/06 00:40:52;;;;;;;6.28;2.35;;;19.60;37.20;;;;;;5093378;28;20067;-42
2023/06/06 00:43:19;;;;;;;4.80;2.70;;;19.60;37.40;;;;;;5099000;28;20511;-46
2023/06/06 00:45:46;;;;;;;4.78;2.08;;;19.60;37.50;;;;;;5097200;28;20048;-44
2023/06/06 00:48:14;;;;;;;3.33;2.30;;;19.50;37.40;;;;;;5093021;28;20959;-43
2023/06/06 00:50:43;;;;;;;5.60;2.47;;;19.50;37.50;;;;;;5099962;28;20056;-46
2023/06/06 00:53:11;;;;;;;4.35;2.35;;;19.50;37.70;;;;;;5093561;28;20055;-42
2023/06/06 00:55:39;;;;;;;4.20;2.20;;;19.50;37.70;;;;;;5083065;27;20056;-41
2023/06/06 00:58:08;;;;;;;3.53;2.00;;;19.40;37.70;;;;;;5024287;28;20444;-43
2023/06/06 01:00:36;;;;;;;5.53;2.08;;;19.40;37.70;;;;;;5071910;23;20080;-52
2023/06/06 01:03:09;;;;;;;4.70;2.10;;;19.30;37.80;;;;;;5019790;28;20413;-58
2023/06/06 01:05:36;;;;;;;7.45;2.20;;;19.30;37.80;;;;;;5020650;28;20061;-54
2023/06/06 01:08:05;;;;;;;5.93;1.90;;;19.30;37.90;;;;;;5018633;28;20060;-51
2023/06/06 01:10:34;;;;;;;3.40;2.08;;;19.20;38.10;;;;;;5019869;28;20057;-53
2023/06/06 01:13:09;;;;;;;3.28;2.30;;;19.20;38.20;;;;;;5019035;28;20053;-55
2023/06/06 01:15:43;;;;;;;2.90;2.10;;;19.10;38.20;;;;;;5019260;28;20080;-54
2023/06/06 01:18:11;;;;;;;;;;;19.00;38.10;;;;;;5018187;28;20054;-56
2023/06/06 01:20:39;;;;;;;3.85;2.25;;;19.10;37.90;;;;;;5016937;28;19921;-50
2023/06/06 01:23:10;;;;;;;4.20;2.00;;;19.00;38.20;;;;;;5014854;28;20057;-51
2023/06/06 01:25:37;;;;;;;3.40;2.20;;;19.00;38.40;;;;;;5018680;28;20054;-53
2023/06/06 01:28:12;;;;;;;4.63;2.22;;;18.90;38.30;;;;;;5012914;28;20060;-50
2023/06/06 01:30:42;;;;;;;4.47;2.30;;;18.80;38.50;;;;;;5012951;28;20237;-56
2023/06/06 01:33:18;;;;;;;3.30;2.35;;;18.70;38.70;;;;;;5019345;28;20053;-54
2023/06/06 01:35:55;;;;;;;3.17;2.10;;;18.70;38.90;;;;;;5023262;28;20144;-53
2023/06/06 01:38:27;;;;;;;4.72;2.13;;;18.70;39.00;;;;;;5017034;28;20519;-53
2023/06/06 01:40:57;;;;;;;2.60;2.10;;;18.60;39.20;;;;;;5021952;28;20053;-57
2023/06/06 01:43:26;;;;;;;4.55;2.65;;;18.60;39.30;;;;;;5020349;28;20049;-57
2023/06/06 01:45:55;;;;;;;3.80;2.20;;;18.60;39.40;;;;;;5022821;28;20057;-54
2023/06/06 01:48:24;;;;;;;3.15;2.00;;;18.50;39.40;;;;;;5019390;28;20057;-54
2023/06/06 01:50:54;;;;;;;6.47;2.30;;;18.50;39.50;;;;;;5023875;28;20060;-55
2023/06/06 01:53:21;;;;;;;3.35;2.20;;;18.50;39.50;;;;;;5020447;28;20065;-54
2023/06/06 01:55:51;;;;;;;2.92;1.90;;;18.50;39.60;;;;;;5022743;28;20049;-52
2023/06/06 01:58:19;;;;;;;2.45;1.73;;;18.40;39.70;;;;;;5022463;28;20061;-53
2023/06/06 02:00:47;;;;;;;4.93;2.13;;;18.30;39.70;;;;;;5021229;28;20045;-55
2023/06/06 02:03:14;;;;;;;3.00;2.25;;;18.30;39.70;;;;;;5021428;28;20476;-52
2023/06/06 02:05:41;;;;;;;3.95;2.17;;;18.30;39.80;;;;;;5022198;28;20053;-56
2023/06/06 02:08:08;;;;;;;3.80;2.20;;;18.30;40.00;;;;;;5016999;28;20485;-54
2023/06/06 02:10:36;;;;;;;4.47;2.00;;;18.20;40.10;;;;;;5022263;28;20413;-54
2023/06/06 02:13:05;;;;;;;4.50;2.08;;;18.20;40.30;;;;;;5021752;28;20493;-55
2023/06/06 02:15:32;;;;;;;3.95;2.50;;;18.20;40.50;;;;;;5020613;28;20053;-54
2023/06/06 02:17:59;;;;;;;4.38;2.30;;;18.10;40.60;;;;;;5020265;28;20049;-55
2023/06/06 02:20:26;;;;;;;2.60;1.83;;;18.10;40.70;;;;;;5022505;28;20501;-58
2023/06/06 02:22:54;;;;;;;3.55;2.40;;;18.10;40.90;;;;;;5021058;28;20497;-58
2023/06/06 02:25:23;;;;;;;3.92;2.35;;;18.10;41.10;;;;;;5018753;28;20436;-57
2023/06/06 02:27:51;;;;;;;4.75;2.38;;;18.00;41.20;;;;;;5022060;28;20497;-55
2023/06/06 02:30:19;;;;;;;3.40;2.20;;;18.00;41.20;;;;;;5022715;28;20061;-56
2023/06/06 02:32:47;;;;;;;4.55;2.38;;;18.00;41.40;;;;;;5019609;28;20053;-55
2023/06/06 02:35:15;;;;;;;5.03;2.28;;;17.90;41.50;;;;;;5012180;28;20676;-56
2023/06/06 02:37:42;;;;;;;4.95;2.55;;;17.90;41.50;;;;;;5020258;28;20504;-55
2023/06/06 02:40:11;;;;;;;4.95;2.30;;;17.80;41.30;;;;;;5021601;28;20060;-56
2023/06/06 02:42:39;;;;;;;3.47;2.22;;;17.80;41.40;;;;;;5019543;28;20053;-55
2023/06/06 02:45:07;;;;;;;4.03;2.20;;;17.80;41.50;;;;;;5023285;28;20053;-55
2023/06/06 02:47:36;;;;;;;4.95;2.50;;;17.80;41.70;;;;;;5021363;28;20053;-55
2023/06/06 02:50:04;;;;;;;4.97;2.40;;;17.70;41.80;;;;;;5021913;28;20060;-54
2023/06/06 02:52:32;;;;;;;4.32;2.53;;;17.70;41.80;;;;;;5018875;28;20053;-56
2023/06/06 02:54:59;;;;;;;3.38;2.60;;;17.60;41.80;;;;;;5015766;28;20053;-57
2023/06/06 02:57:27;;;;;;;4.72;2.90;;;17.60;42.20;;;;;;5021008;28;20412;-57
2023/06/06 02:59:55;;;;;;;4.00;2.42;;;17.60;42.20;;;;;;5020994;28;20534;-58
2023/06/06 03:02:22;;;;;;;5.40;2.50;;;17.60;42.40;;;;;;5021234;28;20054;-56
2023/06/06 03:04:50;;;;;;;4.90;2.40;;;17.50;42.40;;;;;;5018577;28;20057;-56
2023/06/06 03:07:18;;;;;;;5.20;2.85;;;17.50;42.60;;;;;;5018966;28;20049;-57
2023/06/06 03:09:45;;;;;;;3.50;2.30;;;17.50;42.60;;;;;;5006454;28;20050;-56
2023/06/06 03:12:12;;;;;;;5.07;2.30;;;17.40;42.40;;;;;;5022318;28;20053;-55
2023/06/06 03:14:39;;;;;;;4.47;2.05;;;17.40;42.50;;;;;;5021838;28;20057;-55
2023/06/06 03:17:07;;;;;;;4.00;2.55;;;17.40;42.60;;;;;;5019095;28;20052;-55
2023/06/06 03:19:35;;;;;;;4.90;2.63;;;17.30;43.10;;;;;;5021399;28;21131;-56
2023/06/06 03:22:03;;;;;;;3.88;2.20;;;17.30;43.30;;;;;;5019334;28;20053;-56
2023/06/06 03:24:33;;;;;;;4.03;2.30;;;17.30;43.00;;;;;;5015619;28;20516;-57
2023/06/06 03:27:03;;;;;;;3.65;2.70;;;17.20;43.00;;;;;;5020010;28;20046;-58
2023/06/06 03:29:30;;;;;;;4.32;2.38;;;17.20;43.20;;;;;;5021023;28;20484;-57
2023/06/06 03:31:58;;;;;;;4.05;2.40;;;17.20;43.30;;;;;;5020731;28;20104;-57
2023/06/06 03:34:25;;;;;;;3.63;2.38;;;17.20;43.50;;;;;;5019094;28;20053;-57
2023/06/06 03:36:54;;;;;;;3.95;2.72;;;17.10;43.50;;;;;;5020217;28;20057;-56
2023/06/06 03:39:22;;;;;;;4.15;2.80;;;17.10;43.60;;;;;;5022466;28;20060;-57
2023/06/06 03:41:49;;;;;;;3.65;2.55;;;17.10;43.80;;;;;;5021291;28;20520;-57
2023/06/06 03:44:16;;;;;;;4.63;2.60;;;17.10;43.70;;;;;;5018839;28;20053;-58
2023/06/06 03:46:44;;;;;;;3.75;2.42;;;17.10;43.80;;;;;;5016216;28;20053;-56
2023/06/06 03:49:11;;;;;;;7.03;2.85;;;17.10;43.90;;;;;;5017261;28;20053;-57
2023/06/06 03:51:40;;;;;;;3.53;2.60;;;17.00;43.90;;;;;;5018989;28;20054;-57
2023/06/06 03:54:07;;;;;;;3.83;2.15;;;17.00;43.90;;;;;;5018092;28;20136;-56
2023/06/06 03:56:37;;;;;;;6.22;2.80;;;17.00;43.90;;;;;;5020035;28;20058;-56
2023/06/06 03:59:05;;;;;;;4.53;2.67;;;17.00;44.10;;;;;;5019842;28;20436;-57
2023/06/06 04:01:33;;;;;;;3.97;2.50;;;17.00;44.10;;;;;;5019187;28;20049;-56
2023/06/06 04:04:00;;;;;;;5.07;3.17;;;17.00;44.20;;;;;;5020140;28;20519;-57
2023/06/06 04:06:28;;;;;;;6.93;2.70;;;16.90;44.20;;;;;;5020713;28;20053;-56
2023/06/06 04:08:56;;;;;;;5.03;2.50;;;16.90;44.30;;;;;;5016318;28;20485;-56
2023/06/06 04:11:23;;;;;;;4.82;2.50;;;16.90;44.40;;;;;;5018755;28;20402;-55
2023/06/06 04:13:52;;;;;;;4.18;2.67;;;16.90;44.50;;;;;;5019762;28;20049;-55
2023/06/06 04:16:19;;;;;;;3.45;2.30;;;16.90;44.70;;;;;;5012556;28;20402;-57
2023/06/06 04:18:47;;;;;;;4.65;2.38;;;16.90;44.80;;;;;;5010162;28;20497;-55
2023/06/06 04:21:14;;;;;;;4.10;2.53;;;16.90;44.80;;;;;;5012865;28;20049;-56
2023/06/06 04:23:42;;;;;;;3.28;2.47;;;16.90;44.90;;;;;;5018466;28;20489;-56
2023/06/06 04:26:11;;;;;;;4.55;2.60;;;16.90;45.10;;;;;;5018940;28;20096;-56
2023/06/06 04:28:39;;;;;;;23.05;11.88;;;16.90;45.40;;;;;;5020210;28;20055;-55
2023/06/06 04:31:08;;;;;;;11.98;5.82;;;16.90;45.70;;;;;;5017686;28;20050;-55
2023/06/06 04:33:36;;;;;;;7.10;4.13;;;16.90;45.50;;;;;;5018689;28;20054;-55
2023/06/06 04:36:04;;;;;;;5.03;3.10;;;16.80;45.40;;;;;;5018033;28;20053;-58
2023/06/06 04:38:31;;;;;;;4.50;2.80;;;16.90;45.50;;;;;;5012249;28;20049;-59
2023/06/06 04:41:01;;;;;;;4.47;2.90;;;16.90;45.50;;;;;;5018060;28;20049;-58
2023/06/06 04:43:28;;;;;;;8.18;2.80;;;16.90;45.60;;;;;;5018135;28;20053;-58
2023/06/06 04:46:01;;;;;;;3.38;2.40;;;16.90;45.90;;;;;;5014970;28;20060;-57
2023/06/06 04:48:30;;;;;;;3.60;2.60;;;16.90;45.90;;;;;;5017165;28;20060;-59
2023/06/06 04:50:58;;;;;;;7.97;2.72;;;16.90;46.00;;;;;;5012224;28;20061;-58
2023/06/06 04:53:25;;;;;;;4.60;2.55;;;16.90;45.90;;;;;;5015680;28;20050;-58
2023/06/06 04:55:54;;;;;;;3.90;2.72;;;16.90;46.00;;;;;;5016589;28;20065;-58
2023/06/06 04:58:21;;;;;;;4.60;3.17;;;17.00;46.10;;;;;;5018656;28;20045;-58
2023/06/06 05:00:50;;;;;;;4.78;2.90;;;17.00;46.20;;;;;;5015828;28;20504;-57
2023/06/06 05:03:19;;;;;;;3.80;2.75;;;17.00;46.30;;;;;;5015572;28;20049;-58
2023/06/06 05:05:49;;;;;;;4.72;2.95;;;17.00;46.30;;;;;;5018516;28;20061;-57
2023/06/06 05:08:16;;;;;;;4.90;2.63;;;17.00;46.50;;;;;;5020042;28;20413;-59
2023/06/06 05:10:44;;;;;;;4.40;2.63;;;17.00;46.50;;;;;;5021266;28;20065;-58
2023/06/06 05:13:11;;;;;;;5.65;2.72;;;17.10;46.60;;;;;;5019524;28;20509;-58
2023/06/06 05:15:38;;;;;;;3.83;2.55;;;17.10;46.70;;;;;;5022893;28;20057;-59
2023/06/06 05:18:06;;;;;;;6.22;2.80;;;17.10;46.70;;;;;;5015116;28;20417;-58
2023/06/06 05:20:33;;;;;;;4.70;2.70;;;17.20;47.10;;;;;;5021805;28;20445;-59
2023/06/06 05:23:01;;;;;;;4.05;2.42;;;17.20;47.00;;;;;;5021867;28;20080;-59
2023/06/06 05:25:29;;;;;;;8.75;3.38;;;17.20;47.00;;;;;;5022686;28;20508;-57
2023/06/06 05:27:56;;;;;;;7.45;2.95;;;17.20;47.30;;;;;;5016814;28;20437;-58
2023/06/06 05:30:23;;;;;;;4.97;3.00;;;17.30;47.30;;;;;;5015870;28;20057;-58
2023/06/06 05:32:50;;;;;;;4.03;2.90;;;17.30;47.20;;;;;;5013459;28;20061;-58
2023/06/06 05:35:18;;;;;;;4.30;3.38;;;17.30;47.20;;;;;;5017345;28;20103;-58
2023/06/06 05:37:45;;;;;;;6.20;3.40;;;17.40;47.60;;;;;;5013984;28;20064;-58
2023/06/06 05:40:14;;;;;;;8.27;5.10;;;17.40;47.90;;;;;;5016626;28;20057;-59
2023/06/06 05:42:41;;;;;;;9.45;4.97;;;17.40;48.10;;;;;;5015701;28;20053;-58
2023/06/06 05:45:09;;;;;;;11.27;5.22;;;17.50;48.40;;;;;;5016907;28;20053;-57
2023/06/06 05:47:36;;;;;;;10.73;5.85;;;17.50;49.10;;;;;;5013954;28;20057;-55
2023/06/06 05:50:04;;;;;;;9.70;6.30;;;17.60;49.40;;;;;;5017021;28;20064;-52
2023/06/06 05:52:32;;;;;;;12.20;5.40;;;17.60;49.50;;;;;;5013636;28;20374;-57
2023/06/06 05:55:03;;;;;;;13.20;5.57;;;17.60;49.60;;;;;;5018598;28;20054;-55
2023/06/06 05:57:32;;;;;;;10.23;5.22;;;17.60;50.00;;;;;;5017268;28;20428;-55
2023/06/06 06:00:00;;;;;;;16.08;6.18;;;17.70;49.80;;;;;;5016700;28;20061;-49
2023/06/06 06:02:28;;;;;;;10.38;6.30;;;17.70;49.80;;;;;;5014375;28;20045;-57
2023/06/06 06:04:56;;;;;;;11.57;5.93;;;17.80;49.90;;;;;;5022768;28;20057;-53
2023/06/06 06:07:24;;;;;;;7.03;4.65;;;17.80;49.90;;;;;;5020591;28;21234;-54
2023/06/06 06:09:52;;;;;;;11.10;4.78;;;17.90;49.80;;;;;;5018892;28;20494;-49
2023/06/06 06:12:19;;;;;;;10.32;5.15;;;17.90;49.60;;;;;;5019478;28;20060;-56
2023/06/06 06:14:47;;;;;;;8.15;4.65;;;17.90;49.60;;;;;;5022981;28;20084;-54
2023/06/06 06:17:15;;;;;;;7.57;5.05;;;17.90;49.60;;;;;;5020776;28;20068;-51
2023/06/06 06:19:42;;;;;;;17.70;6.10;;;18.00;49.60;;;;;;5022070;28;20886;-51
2023/06/06 06:22:09;;;;;;;9.95;5.18;;;18.00;49.80;;;;;;5021380;28;20056;-51
2023/06/06 06:24:36;;;;;;;7.82;4.70;;;18.10;49.90;;;;;;5021483;28;20072;-50
2023/06/06 06:27:04;;;;;;;9.77;4.97;;;18.10;50.00;;;;;;5021268;28;20065;-53
2023/06/06 06:29:31;;;;;;;10.00;5.80;;;18.10;49.90;;;;;;5021328;28;20068;-47
2023/06/06 06:31:59;;;;;;;9.88;5.60;;;18.20;50.20;;;;;;5020726;28;20052;-51
2023/06/06 06:34:26;;;;;;;7.68;5.30;;;18.20;50.20;;;;;;5021320;28;20064;-50
2023/06/06 06:36:54;;;;;;;12.35;6.70;;;18.30;50.10;;;;;;5021223;28;20681;-57
2023/06/06 06:39:21;;;;;;;8.73;5.32;;;18.30;50.20;;;;;;5014744;28;20475;-51
2023/06/06 06:41:48;;;;;;;12.88;6.95;;;18.30;50.40;;;;;;5016148;28;20077;-53
2023/06/06 06:44:16;;;;;;;10.98;6.75;;;18.40;50.70;;;;;;5017216;28;20053;-53
2023/06/06 06:46:43;;;;;;;10.00;6.85;;;18.50;50.70;;;;;;5015874;28;20060;-47
2023/06/06 06:49:18;;;;;;;13.20;6.95;;;18.50;50.60;;;;;;5019453;28;20153;-51
2023/06/06 06:51:45;;;;;;;10.50;7.20;;;18.60;50.60;;;;;;5017146;28;20112;-49
2023/06/06 06:54:13;;;;;;;12.85;6.60;;;18.60;50.20;;;;;;5017856;28;20060;-53
2023/06/06 06:56:42;;;;;;;11.48;7.03;;;18.70;50.70;;;;;;5020061;28;20057;-56
2023/06/06 06:59:10;;;;;;;9.15;5.72;;;18.70;50.40;;;;;;5021272;28;20060;-58
2023/06/06 07:01:38;;;;;;;11.25;7.05;;;18.70;50.30;;;;;;5020210;28;20497;-56
2023/06/06 07:04:06;;;;;;;10.68;6.55;;;18.80;50.10;;;;;;5021191;28;20056;-58
2023/06/06 07:06:36;;;;;;;15.85;6.80;;;18.80;49.90;;;;;;5008781;28;20053;-57
2023/06/06 07:09:05;;;;;;;12.07;5.80;;;18.90;50.50;;;;;;5013389;28;20496;-57
2023/06/06 07:11:32;;;;;;;12.95;5.65;;;18.90;49.70;;;;;;5010714;28;20053;-56
2023/06/06 07:13:59;;;;;;;11.77;6.18;;;19.00;49.80;;;;;;5011859;28;20057;-57
2023/06/06 07:16:26;;;;;;;14.73;5.78;;;19.10;50.00;;;;;;5012266;28;20053;-52
2023/06/06 07:18:54;;;;;;;13.02;6.68;;;19.20;49.80;;;;;;5014094;28;20165;-58
2023/06/06 07:21:21;;;;;;;10.70;5.68;;;19.20;49.10;;;;;;5015809;28;20056;-57
2023/06/06 07:23:58;;;;;;;11.50;5.50;;;19.20;49.00;;;;;;5005703;28;20058;-58
2023/06/06 07:26:26;;;;;;;11.00;5.93;;;19.40;49.10;;;;;;5017254;28;20531;-59
2023/06/06 07:28:53;;;;;;;14.77;5.85;;;19.40;49.20;;;;;;5010593;28;20444;-56
2023/06/06 07:31:21;;;;;;;8.15;5.00;;;19.50;48.90;;;;;;5016316;28;20045;-58
2023/06/06 07:33:48;;;;;;;12.75;5.45;;;19.60;48.30;;;;;;5015426;28;20350;-54
2023/06/06 07:36:15;;;;;;;7.80;4.50;;;19.60;48.30;;;;;;5020193;28;20056;-56
2023/06/06 07:38:43;;;;;;;13.10;5.22;;;19.70;47.60;;;;;;5012610;28;20049;-54
2023/06/06 07:41:11;;;;;;;10.43;4.90;;;19.70;47.80;;;;;;5014330;28;20049;-56
2023/06/06 07:43:40;;;;;;;8.60;5.13;;;19.80;47.90;;;;;;5014652;28;20524;-58
2023/06/06 07:46:07;;;;;;;7.45;4.68;;;19.80;47.80;;;;;;5013213;28;20493;-58
2023/06/06 07:48:34;;;;;;;9.02;4.50;;;19.90;47.20;;;;;;5012582;28;20060;-57
2023/06/06 07:51:02;;;;;;;9.52;4.47;;;20.00;46.40;;;;;;5011629;28;20060;-55
2023/06/06 07:53:29;;;;;;;8.77;4.95;;;20.00;46.10;;;;;;5009737;28;20046;-57
2023/06/06 07:55:56;;;;;;;6.18;4.18;;;20.00;46.70;;;;;;5015608;28;20058;-58
2023/06/06 07:58:27;;;;;;;6.72;3.90;;;20.20;47.00;;;;;;5014590;28;20390;-55
2023/06/06 08:00:58;;;;;;;7.90;5.07;;;20.20;47.10;;;;;;5013283;28;20064;-56
2023/06/06 08:03:25;;;;;;;13.73;4.88;;;20.30;47.00;;;;;;5014082;28;20049;-57
2023/06/06 08:05:54;;;;;;;7.97;4.28;;;20.40;47.00;;;;;;5009254;28;20080;-57
2023/06/06 08:08:21;;;;;;;9.52;4.00;;;20.40;46.90;;;;;;5014324;28;20084;-58
2023/06/06 08:10:49;;;;;;;10.88;3.50;;;20.50;46.30;;;;;;5010432;28;20068;-58
2023/06/06 08:13:16;;;;;;;6.40;3.33;;;20.60;45.60;;;;;;5013509;28;20057;-57
2023/06/06 08:15:45;;;;;;;4.70;3.10;;;20.70;45.10;;;;;;5010215;28;20057;-58
2023/06/06 08:18:14;;;;;;;8.32;3.13;;;20.70;44.60;;;;;;5016706;28;20060;-59
2023/06/06 08:20:41;;;;;;;4.93;2.40;;;20.80;44.30;;;;;;5016899;28;20057;-59
2023/06/06 08:23:08;;;;;;;5.47;3.40;;;20.90;44.40;;;;;;5008160;28;20053;-60
2023/06/06 08:25:39;;;;;;;8.18;3.47;;;20.90;44.50;;;;;;5009100;28;20049;-59
2023/06/06 08:28:06;;;;;;;7.72;3.65;;;21.00;44.20;;;;;;5017143;28;20045;-59
2023/06/06 08:30:33;;;;;;;7.55;3.53;;;21.00;43.60;;;;;;5010718;28;20409;-59
2023/06/06 08:33:02;;;;;;;6.35;3.50;;;21.10;44.00;;;;;;5007788;28;20057;-57
2023/06/06 08:35:29;;;;;;;7.85;3.47;;;21.20;43.80;;;;;;5012181;28;20073;-60
2023/06/06 08:37:57;;;;;;;3.95;2.83;;;21.30;43.90;;;;;;5012307;28;20054;-59
2023/06/06 08:40:24;;;;;;;5.13;3.15;;;21.40;44.30;;;;;;5008684;28;20057;-58
2023/06/06 08:42:52;;;;;;;5.07;3.35;;;21.40;44.10;;;;;;5009462;28;20056;-59
2023/06/06 08:45:21;;;;;;;7.38;3.22;;;21.50;44.10;;;;;;5014039;28;20072;-58
2023/06/06 08:47:49;;;;;;;9.38;3.20;;;21.60;43.70;;;;;;5006395;28;20049;-58
2023/06/06 08:50:25;;;;;;;6.85;3.90;;;21.60;44.00;;;;;;5013335;28;20078;-58
2023/06/06 08:52:55;;;;;;;9.80;4.13;;;21.70;43.70;;;;;;4995205;28;20425;-59
2023/06/06 08:55:27;;;;;;;16.23;5.03;;;21.80;44.20;;;;;;4999418;28;20066;-57
2023/06/06 09:01:19;;;;;;;6.70;3.80;;;21.90;43.50;;;;;;5011794;28;20408;-59
2023/06/06 09:03:46;;;;;;;7.18;3.55;;;22.00;43.90;;;;;;5010738;28;20252;-59
2023/06/06 09:06:16;;;;;;;6.35;3.75;;;22.00;43.70;;;;;;5008661;28;20056;-57
2023/06/06 09:08:44;;;;;;;8.98;3.50;;;22.10;43.50;;;;;;5010858;28;20053;-57
2023/06/06 09:11:12;;;;;;;8.57;3.40;;;22.20;43.00;;;;;;5007869;28;20057;-57
2023/06/06 09:13:41;;;;;;;8.18;3.80;;;22.20;43.30;;;;;;5012043;28;20045;-59
2023/06/06 09:16:09;;;;;;;7.30;3.55;;;22.30;42.90;;;;;;5011130;28;20056;-55
2023/06/06 09:18:36;;;;;;;8.10;3.53;;;22.40;42.80;;;;;;5009643;28;20072;-56
2023/06/06 09:21:03;;;;;;;5.28;3.05;;;22.40;41.80;;;;;;5008175;28;20671;-55
2023/06/06 09:23:32;;;;;;;9.25;3.90;;;22.50;41.50;;;;;;5005125;28;20050;-49
2023/06/06 09:26:00;;;;;;;8.77;3.70;;;22.50;41.20;;;;;;5009767;28;20057;-47
2023/06/06 09:28:37;;;;;;;8.05;3.72;;;22.60;40.80;;;;;;5016040;28;20049;-53
2023/06/06 09:31:23;;;;;;;8.98;3.47;;;22.70;40.40;;;;;;5014014;28;20064;-48
2023/06/06 09:33:52;;;;;;;6.30;3.20;;;22.70;40.30;;;;;;5010318;28;20050;-48
2023/06/06 09:36:22;;;;;;;5.35;3.00;;;22.80;40.70;;;;;;5007782;28;20064;-53
2023/06/06 09:38:52;;;;;;;7.28;3.67;;;22.90;40.40;;;;;;5008804;28;20081;-50
2023/06/06 09:41:21;;;;;;;10.15;3.72;;;23.00;40.30;;;;;;5009370;28;20072;-50
2023/06/06 09:43:49;;;;;;;8.40;3.45;;;23.00;40.20;;;;;;5006038;28;20057;-54
2023/06/06 09:46:17;;;;;;;6.82;3.47;;;23.00;40.00;;;;;;5014806;28;20053;-57
2023/06/06 09:56:09;;;;;;;7.25;3.40;;;23.20;39.50;;;;;;5034185;28;20393;-47
2023/06/06 09:58:36;;;;;;;5.45;2.80;;;23.30;40.10;;;;;;5016098;28;20064;-51
2023/06/06 10:01:06;;;;;;;9.13;3.53;;;23.40;39.90;;;;;;5013635;28;20053;-54
2023/06/06 10:03:37;;;;;;;6.00;2.88;;;23.40;39.30;;;;;;5017098;28;20058;-51
2023/06/06 10:06:07;;;;;;;4.55;2.97;;;23.50;39.60;;;;;;5016871;28;20501;-51
2023/06/06 10:08:35;;;;;;;9.90;3.13;;;23.60;39.50;;;;;;5016012;28;20053;-47
2023/06/06 10:11:03;;;;;;;5.05;2.85;;;23.70;38.00;;;;;;5003179;28;20245;-54
2023/06/06 10:13:34;;;;;;;10.48;3.60;;;23.70;38.00;;;;;;5012418;28;20073;-54
2023/06/06 10:16:02;;;;;;;4.97;2.53;;;23.80;37.90;;;;;;5017985;28;20049;-50
2023/06/06 10:18:30;;;;;;;5.43;2.90;;;23.80;37.80;;;;;;5008400;28;20080;-51
2023/06/06 10:20:58;;;;;;;4.90;2.97;;;23.90;37.90;;;;;;5013591;28;20479;-46
2023/06/06 10:23:25;;;;;;;6.63;3.10;;;24.00;37.80;;;;;;5011636;28;20053;-50
2023/06/06 10:25:55;;;;;;;6.85;3.10;;;24.00;37.30;;;;;;5016916;28;20057;-45
2023/06/06 10:28:29;;;;;;;6.20;3.13;;;24.10;37.70;;;;;;5015599;28;20501;-46
2023/06/06 10:31:00;;;;;;;;;;;24.10;37.70;;;;;;5011913;28;20057;-45
2023/06/06 10:33:33;;;;;;;9.13;3.20;;;24.30;37.60;;;;;;5017716;28;19925;-47
2023/06/06 10:36:03;;;;;;;8.40;3.22;;;24.30;37.20;;;;;;5016730;28;20350;-51
2023/06/06 10:38:32;;;;;;;7.03;3.40;;;24.30;36.30;;;;;;5016556;28;20054;-51
2023/06/06 10:41:00;;;;;;;6.43;3.10;;;24.40;36.00;;;;;;5017556;28;20121;-49
2023/06/06 10:43:55;;;;;;;5.25;3.05;;;24.40;36.50;;;;;;5009923;28;20417;-48
2023/06/06 10:46:24;;;;;;;12.02;3.22;;;24.50;36.00;;;;;;5016850;28;20049;-48
2023/06/06 10:48:59;;;;;;;6.00;3.13;;;24.50;35.80;;;;;;5016655;28;20053;-48
2023/06/06 10:51:31;;;;;;;5.05;2.80;;;24.50;35.80;;;;;;5018814;28;20069;-47
2023/06/06 10:54:17;;;;;;;13.23;3.40;;;24.60;37.00;;;;;;5015100;28;20049;-53
2023/06/06 10:56:50;;;;;;;8.30;3.20;;;24.70;37.90;;;;;;5013001;28;20512;-50
2023/06/06 10:59:21;;;;;;;6.73;3.27;;;24.70;36.90;;;;;;5008659;28;20145;-47
2023/06/06 11:01:49;;;;;;;3.70;2.88;;;24.80;36.20;;;;;;5015306;28;20612;-46
2023/06/06 11:04:18;;;;;;;6.57;3.22;;;24.90;35.40;;;;;;5012346;28;20045;-48
2023/06/06 11:06:46;;;;;;;5.68;2.80;;;24.90;35.50;;;;;;5013356;28;20054;-48
2023/06/06 11:09:23;;;;;;;4.05;2.65;;;25.00;34.90;;;;;;5016275;28;20068;-47
2023/06/06 11:11:51;;;;;;;4.95;2.60;;;25.10;35.20;;;;;;5010585;28;20053;-47
2023/06/06 11:14:23;;;;;;;6.13;2.85;;;25.20;36.00;;;;;;5011561;28;20050;-49
2023/06/06 11:17:02;;;;;;;16.15;3.10;;;25.30;36.00;;;;;;5016399;28;20508;-49
2023/06/06 11:19:37;;;;;;;6.82;2.97;;;25.30;33.90;;;;;;5019089;28;20275;-49
2023/06/06 11:22:05;;;;;;;5.22;2.88;;;25.40;35.20;;;;;;5013919;28;20072;-46
2023/06/06 11:24:35;;;;;;;4.80;3.00;;;25.40;34.50;;;;;;5010657;28;20405;-47
2023/06/06 11:27:04;;;;;;;6.82;2.83;;;25.50;34.50;;;;;;5017336;28;20053;-47
2023/06/06 11:29:32;;;;;;;5.15;2.65;;;25.60;34.20;;;;;;5012840;28;20072;-49
2023/06/06 11:32:00;;;;;;;2.60;2.13;;;25.70;34.30;;;;;;5013034;28;20049;-52
2023/06/06 11:34:28;;;;;;;8.45;3.03;;;25.70;34.30;;;;;;5013012;28;20056;-51
2023/06/06 11:36:56;;;;;;;5.65;2.83;;;25.70;33.50;;;;;;5012458;28;20060;-58
2023/06/06 11:39:28;;;;;;;5.88;2.92;;;25.80;33.60;;;;;;5018124;28;20504;-54
2023/06/06 11:41:56;;;;;;;7.85;2.75;;;25.80;33.30;;;;;;5010578;28;20076;-55
2023/06/06 11:44:32;;;;;;;6.30;2.92;;;25.90;32.30;;;;;;5017863;28;20061;-47
2023/06/06 11:47:02;;;;;;;4.55;3.03;;;26.00;32.30;;;;;;5015125;28;20053;-57
2023/06/06 11:49:30;;;;;;;3.70;2.70;;;26.10;33.00;;;;;;5010083;28;20049;-57
2023/06/06 11:51:58;;;;;;;3.65;2.40;;;26.10;33.30;;;;;;5012461;28;20058;-57
2023/06/06 11:54:27;;;;;;;3.28;2.35;;;26.30;33.60;;;;;;5013429;28;20050;-57
2023/06/06 11:56:57;;;;;;;5.15;2.58;;;26.30;33.70;;;;;;5015088;28;20057;-55
2023/06/06 11:59:24;;;;;;;4.10;2.90;;;26.50;33.90;;;;;;5017188;28;20489;-55
2023/06/06 12:01:54;;;;;;;4.40;2.78;;;26.50;33.80;;;;;;5014989;28;20065;-57
2023/06/06 12:04:23;;;;;;;4.85;2.90;;;26.60;33.10;;;;;;5009831;28;20065;-58
2023/06/06 12:06:52;;;;;;;4.25;2.72;;;26.70;32.10;;;;;;5011415;28;20053;-56
2023/06/06 12:09:23;;;;;;;16.33;3.08;;;26.80;32.50;;;;;;5016670;28;20053;-55
2023/06/06 12:11:53;;;;;;;9.43;3.13;;;26.90;32.40;;;;;;5008514;28;20473;-47
2023/06/06 12:14:22;;;;;;;5.97;3.20;;;27.00;31.30;;;;;;5012208;28;20049;-50
2023/06/06 12:16:49;;;;;;;7.00;3.08;;;27.10;30.60;;;;;;5015673;28;20061;-55
2023/06/06 12:19:17;;;;;;;10.95;2.88;;;27.20;30.30;;;;;;5011485;28;20409;-46
2023/06/06 12:21:47;;;;;;;4.63;3.10;;;27.20;30.20;;;;;;5007497;28;20063;-52
2023/06/06 12:24:19;;;;;;;6.20;3.00;;;27.10;30.40;;;;;;5003727;28;20045;-46
2023/06/06 12:26:53;;;;;;;5.88;2.90;;;27.10;29.90;;;;;;5008820;28;20064;-59
2023/06/06 12:29:20;;;;;;;7.60;3.40;;;27.00;30.00;;;;;;5015763;28;20119;-49
2023/06/06 12:31:50;;;;;;;13.05;3.30;;;27.00;30.00;;;;;;5017492;28;20064;-55
2023/06/06 12:34:18;;;;;;;6.00;3.20;;;26.90;30.20;;;;;;5008221;28;20412;-54
2023/06/06 12:36:52;;;;;;;5.97;3.22;;;26.90;31.70;;;;;;5011974;28;20572;-51
2023/06/06 12:39:19;;;;;;;3.25;2.50;;;26.90;30.90;;;;;;5010743;28;20045;-56
2023/06/06 12:41:46;;;;;;;4.75;3.10;;;26.90;31.70;;;;;;5015435;28;20049;-57
2023/06/06 12:44:16;;;;;;;3.88;2.80;;;26.90;31.00;;;;;;5012223;28;20173;-46
2023/06/06 12:46:45;;;;;;;5.82;3.08;;;26.90;31.10;;;;;;5012853;28;20527;-48
2023/06/06 12:49:12;;;;;;;5.97;2.83;;;26.90;31.10;;;;;;5010113;28;20064;-49
2023/06/06 12:51:39;;;;;;;6.15;2.92;;;26.90;31.20;;;;;;5008766;28;20481;-47
2023/06/06 12:54:10;;;;;;;5.60;2.97;;;26.90;31.50;;;;;;5013050;28;20049;-47
2023/06/06 12:56:37;;;;;;;4.78;2.90;;;26.90;31.20;;;;;;5015195;28;20053;-55
2023/06/06 12:59:04;;;;;;;5.32;3.22;;;26.90;31.40;;;;;;5015273;28;20049;-55
2023/06/06 13:01:31;;;;;;;4.25;2.78;;;27.00;31.10;;;;;;5015029;28;20064;-51
2023/06/06 13:03:58;;;;;;;5.85;3.17;;;27.00;31.30;;;;;;5015724;28;20409;-50